Time;durP1;ratioP1;P1;durP2;ratioP2;P2;SDS_P1;SDS_P2;PMS_P1;PMS_P2;Temp;Humidity;BMP_temperature;BMP_pressure;BME280_temperature;BME280_humidity;BME280_pressure;Samples;Min_cycle;Max_cycle;Signal;HPM_P1;HPM_P2
2021/06/15 00:01:15;;;;;;;7.70;3.80;;;9.80;99.90;;;;;;4471507;27;655827;-73
2021/06/15 00:04:03;;;;;;;7.53;3.90;;;9.70;99.90;;;;;;4477090;27;655760;-72
2021/06/15 00:06:51;;;;;;;8.47;4.10;;;9.70;99.90;;;;;;4497838;27;656604;-73
2021/06/15 00:09:38;;;;;;;8.43;4.33;;;9.70;99.90;;;;;;4454608;27;655588;-73
2021/06/15 00:12:26;;;;;;;11.37;4.40;;;9.70;99.90;;;;;;4492733;27;656441;-72
2021/06/15 00:15:15;;;;;;;9.73;5.00;;;9.70;99.90;;;;;;4454868;27;656613;-72
2021/06/15 00:18:03;;;;;;;9.73;4.60;;;9.70;99.90;;;;;;4465119;27;655270;-72
2021/06/15 00:20:50;;;;;;;9.33;4.67;;;9.70;99.90;;;;;;4501134;27;656702;-73
2021/06/15 00:23:38;;;;;;;7.97;4.23;;;9.70;99.90;;;;;;4487015;27;656230;-72
2021/06/15 00:26:25;;;;;;;8.77;4.33;;;9.70;99.90;;;;;;4509161;27;656429;-72
2021/06/15 00:29:13;;;;;;;10.70;4.90;;;9.70;99.90;;;;;;4461493;27;655716;-72
2021/06/15 00:32:02;;;;;;;8.17;4.50;;;9.80;99.90;;;;;;4471483;27;656730;-73
2021/06/15 00:34:50;;;;;;;9.10;4.60;;;9.70;99.90;;;;;;4472742;27;656392;-72
2021/06/15 00:37:38;;;;;;;11.03;5.10;;;9.70;99.90;;;;;;4489677;27;655805;-70
2021/06/15 00:40:26;;;;;;;12.53;5.47;;;9.70;99.90;;;;;;4491376;27;657071;-72
2021/06/15 00:43:13;;;;;;;13.83;5.10;;;9.60;99.90;;;;;;4460369;27;656735;-72
2021/06/15 00:46:01;;;;;;;7.20;4.60;;;9.60;99.90;;;;;;4476028;27;657452;-73
2021/06/15 00:48:50;;;;;;;12.90;4.83;;;9.60;99.90;;;;;;4477597;27;656302;-74
2021/06/15 00:51:38;;;;;;;13.27;4.63;;;9.50;99.90;;;;;;4479713;27;656553;-73
2021/06/15 00:54:26;;;;;;;10.00;4.80;;;9.50;99.90;;;;;;4474684;27;656948;-75
2021/06/15 00:57:16;;;;;;;9.70;4.83;;;9.40;99.90;;;;;;4486382;27;656379;-74
2021/06/15 01:00:05;;;;;;;11.63;4.50;;;9.40;99.90;;;;;;4464696;27;655928;-75
2021/06/15 01:02:52;;;;;;;8.67;4.40;;;9.30;99.90;;;;;;4494391;27;657132;-75
2021/06/15 01:05:41;;;;;;;11.73;5.13;;;9.30;99.90;;;;;;4472029;27;657056;-75
2021/06/15 01:08:35;;;;;;;11.87;5.23;;;9.30;99.90;;;;;;4462060;27;657225;-75
2021/06/15 01:11:31;;;;;;;10.50;4.60;;;9.20;99.90;;;;;;4501875;27;656077;-74
2021/06/15 01:14:31;;;;;;;13.27;5.07;;;9.20;99.90;;;;;;4458448;27;656969;-74
2021/06/15 01:17:20;;;;;;;11.60;4.70;;;9.20;99.90;;;;;;4465157;27;657184;-75
2021/06/15 01:20:17;;;;;;;11.10;5.00;;;9.20;99.90;;;;;;4482868;27;657075;-72
2021/06/15 01:23:31;;;;;;;11.47;5.80;;;9.20;99.90;;;;;;4443380;27;656646;-75
2021/06/15 01:26:46;;;;;;;8.80;4.83;;;9.10;99.90;;;;;;4463427;27;656704;-75
2021/06/15 01:29:35;;;;;;;11.20;4.70;;;9.10;99.90;;;;;;4450017;27;656784;-74
2021/06/15 01:32:25;;;;;;;11.73;5.30;;;9.10;99.90;;;;;;4476122;27;656687;-75
2021/06/15 01:35:13;;;;;;;11.03;5.17;;;9.00;99.90;;;;;;4498328;27;656763;-73
2021/06/15 01:38:02;;;;;;;9.57;5.07;;;9.00;99.90;;;;;;4507060;27;657554;-74
2021/06/15 01:40:52;;;;;;;10.67;4.93;;;8.90;99.90;;;;;;4473297;27;655214;-74
2021/06/15 01:43:42;;;;;;;9.47;5.27;;;8.90;99.90;;;;;;4480501;27;657842;-75
2021/06/15 01:46:38;;;;;;;8.33;4.83;;;8.90;99.90;;;;;;4472935;27;656183;-74
2021/06/15 01:49:26;;;;;;;12.33;5.47;;;8.80;99.90;;;;;;4466028;27;656211;-75
2021/06/15 01:52:13;;;;;;;11.13;4.90;;;8.80;99.90;;;;;;4475322;27;656576;-74
2021/06/15 01:55:01;;;;;;;11.43;5.03;;;8.70;99.90;;;;;;4497528;27;657248;-75
2021/06/15 01:57:49;;;;;;;10.37;5.47;;;8.70;99.90;;;;;;4470243;27;656582;-74
2021/06/15 02:00:36;;;;;;;8.83;5.20;;;8.70;99.90;;;;;;4497625;27;657170;-74
2021/06/15 02:03:26;;;;;;;11.03;5.37;;;8.70;99.90;;;;;;4465576;27;655324;-75
2021/06/15 02:06:14;;;;;;;11.03;5.87;;;8.70;99.90;;;;;;4463419;27;656313;-74
2021/06/15 02:09:03;;;;;;;11.00;5.80;;;8.70;99.90;;;;;;4485974;27;656872;-74
2021/06/15 02:11:51;;;;;;;10.90;5.40;;;8.70;99.90;;;;;;4471194;27;656599;-74
2021/06/15 02:14:38;;;;;;;9.97;5.47;;;8.70;99.90;;;;;;4472124;27;656493;-73
2021/06/15 02:17:27;;;;;;;11.43;5.57;;;8.60;99.90;;;;;;4480417;27;655637;-74
2021/06/15 02:20:17;;;;;;;12.50;7.30;;;8.60;99.90;;;;;;4471661;27;657322;-74
2021/06/15 02:23:04;;;;;;;10.90;7.07;;;8.60;99.90;;;;;;4453516;27;657509;-72
2021/06/15 02:25:53;;;;;;;15.60;6.60;;;8.50;99.90;;;;;;4483324;27;657789;-72
2021/06/15 02:28:41;;;;;;;13.47;6.67;;;8.50;99.90;;;;;;4454073;27;658558;-72
2021/06/15 02:31:29;;;;;;;16.63;8.00;;;8.50;99.90;;;;;;4476048;27;656512;-73
2021/06/15 02:34:17;;;;;;;19.20;10.23;;;8.50;99.90;;;;;;4483013;27;657453;-72
2021/06/15 02:37:07;;;;;;;20.27;10.67;;;8.50;99.90;;;;;;4463239;27;659130;-72
2021/06/15 02:39:56;;;;;;;18.33;10.73;;;8.50;99.90;;;;;;4473828;27;659197;-72
2021/06/15 02:42:44;;;;;;;20.30;10.07;;;8.50;99.90;;;;;;4472032;27;657314;-72
2021/06/15 02:45:32;;;;;;;17.37;9.87;;;8.50;99.90;;;;;;4493742;27;658111;-72
2021/06/15 02:48:20;;;;;;;17.27;10.33;;;8.50;99.90;;;;;;4471539;27;658001;-72
2021/06/15 02:51:08;;;;;;;13.90;8.97;;;8.40;99.90;;;;;;4485170;27;657993;-72
2021/06/15 02:54:02;;;;;;;17.03;9.63;;;8.40;99.90;;;;;;4486375;27;658002;-73
2021/06/15 02:56:51;;;;;;;22.43;10.87;;;8.40;99.90;;;;;;4453732;27;657057;-72
2021/06/15 02:59:39;;;;;;;13.18;8.15;;;8.50;99.90;;;;;;4463169;27;657476;-69
2021/06/15 03:02:27;;;;;;;17.83;8.57;;;8.50;99.90;;;;;;4479185;27;656463;-70
2021/06/15 03:05:17;;;;;;;19.70;9.10;;;8.40;99.90;;;;;;4472464;27;657494;-69
2021/06/15 03:08:05;;;;;;;15.50;8.20;;;8.40;99.90;;;;;;4470291;27;657731;-69
2021/06/15 03:10:54;;;;;;;15.53;8.47;;;8.50;99.90;;;;;;4469400;27;657385;-72
2021/06/15 03:13:45;;;;;;;19.30;9.50;;;8.50;99.90;;;;;;4498496;27;657215;-72
2021/06/15 03:16:33;;;;;;;16.67;9.10;;;8.50;99.90;;;;;;4447562;27;656559;-71
2021/06/15 03:19:22;;;;;;;15.10;8.20;;;8.60;99.90;;;;;;4490027;27;657009;-73
2021/06/15 03:22:12;;;;;;;16.90;8.45;;;8.60;99.90;;;;;;4464242;27;657856;-72
2021/06/15 03:25:01;;;;;;;16.77;9.17;;;8.60;99.90;;;;;;4472822;27;657156;-72
2021/06/15 03:27:54;;;;;;;15.87;8.53;;;8.70;99.90;;;;;;4475961;27;656667;-72
2021/06/15 03:30:42;;;;;;;17.23;8.50;;;8.80;99.90;;;;;;4473370;27;657154;-70
2021/06/15 03:33:30;;;;;;;18.37;8.43;;;8.90;99.90;;;;;;4462973;27;657142;-69
2021/06/15 03:36:18;;;;;;;18.70;8.93;;;9.00;99.90;;;;;;4473431;27;656372;-69
2021/06/15 03:39:06;;;;;;;15.10;8.57;;;9.10;99.90;;;;;;4489703;27;656747;-70
2021/06/15 03:41:54;;;;;;;13.60;7.90;;;9.20;99.90;;;;;;4460655;27;656460;-69
2021/06/15 03:44:43;;;;;;;15.90;8.37;;;9.30;99.90;;;;;;4504678;27;656650;-69
2021/06/15 03:47:31;;;;;;;17.93;9.00;;;9.40;99.90;;;;;;4483911;27;657423;-70
2021/06/15 03:50:19;;;;;;;17.07;8.50;;;9.40;99.90;;;;;;4478074;27;656492;-69
2021/06/15 03:53:08;;;;;;;16.60;8.43;;;9.50;99.90;;;;;;4499845;27;657137;-70
2021/06/15 03:55:57;;;;;;;19.60;9.00;;;9.60;99.90;;;;;;4483309;27;657474;-69
2021/06/15 03:58:45;;;;;;;12.97;7.87;;;9.80;99.90;;;;;;4474419;27;656481;-69
2021/06/15 04:01:34;;;;;;;13.03;7.33;;;9.90;99.90;;;;;;4487807;27;656325;-70
2021/06/15 04:04:22;;;;;;;15.90;8.07;;;9.90;99.90;;;;;;4455177;27;656527;-69
2021/06/15 04:07:13;;;;;;;18.17;8.17;;;10.10;99.90;;;;;;4453408;27;657087;-69
2021/06/15 04:10:02;;;;;;;14.80;7.27;;;10.20;99.90;;;;;;4461465;27;658272;-69
2021/06/15 04:12:50;;;;;;;20.37;8.47;;;10.30;99.90;;;;;;4453996;27;657950;-70
2021/06/15 04:15:38;;;;;;;20.40;7.80;;;10.40;99.90;;;;;;4479234;27;657580;-69
2021/06/15 04:18:27;;;;;;;14.80;8.13;;;10.60;99.90;;;;;;4491102;27;659191;-69
2021/06/15 04:21:15;;;;;;;16.67;8.60;;;10.70;99.90;;;;;;4471639;27;657578;-69
2021/06/15 04:24:04;;;;;;;17.43;8.43;;;10.80;99.90;;;;;;4501867;27;657464;-69
2021/06/15 04:26:52;;;;;;;20.23;8.90;;;11.00;99.90;;;;;;4481271;27;657515;-70
2021/06/15 04:29:39;;;;;;;17.10;7.87;;;11.10;99.90;;;;;;4464393;27;657227;-69
2021/06/15 04:32:31;;;;;;;22.10;8.47;;;11.30;99.90;;;;;;4481399;27;657836;-70
2021/06/15 04:35:25;;;;;;;20.17;8.80;;;11.40;99.90;;;;;;4449806;27;658493;-69
2021/06/15 04:38:15;;;;;;;17.95;9.02;;;11.70;99.90;;;;;;4445249;27;657942;-68
2021/06/15 04:41:06;;;;;;;14.83;8.07;;;11.90;99.90;;;;;;4464755;27;657609;-69
2021/06/15 04:43:55;;;;;;;15.57;8.63;;;12.00;99.90;;;;;;4450814;27;657276;-69
2021/06/15 04:46:44;;;;;;;20.50;8.53;;;12.20;99.90;;;;;;4474413;27;657779;-69
2021/06/15 04:49:33;;;;;;;18.50;8.80;;;12.40;99.90;;;;;;4495644;27;657728;-70
2021/06/15 04:52:25;;;;;;;15.47;8.53;;;12.60;99.90;;;;;;4459545;27;658527;-70
2021/06/15 04:55:13;;;;;;;17.83;8.20;;;12.70;99.90;;;;;;4452915;27;657908;-69
2021/06/15 04:58:01;;;;;;;21.13;8.60;;;12.90;99.90;;;;;;4475788;27;658797;-70
2021/06/15 05:00:49;;;;;;;15.10;8.50;;;13.10;99.90;;;;;;4469208;27;657250;-70
2021/06/15 05:03:37;;;;;;;18.90;9.10;;;13.30;99.90;;;;;;4487788;27;657342;-70
2021/06/15 05:06:24;;;;;;;22.03;9.50;;;13.40;99.90;;;;;;4475781;27;658308;-70
2021/06/15 05:09:15;;;;;;;17.53;9.27;;;13.60;99.90;;;;;;4494930;27;657712;-70
2021/06/15 05:12:03;;;;;;;15.00;8.43;;;13.80;99.90;;;;;;4443692;27;658170;-70
2021/06/15 05:14:51;;;;;;;22.20;9.05;;;13.90;99.90;;;;;;4493849;27;658154;-70
2021/06/15 05:17:39;;;;;;;19.07;8.10;;;14.10;99.90;;;;;;4476306;27;657561;-70
2021/06/15 05:20:27;;;;;;;16.30;7.30;;;14.30;99.90;;;;;;4499541;27;657784;-71
2021/06/15 05:23:16;;;;;;;18.00;8.50;;;14.40;99.90;;;;;;4480795;27;658661;-71
2021/06/15 05:26:05;;;;;;;17.03;8.13;;;14.50;99.90;;;;;;4475216;27;658194;-71
2021/06/15 05:28:53;;;;;;;16.07;7.33;;;14.70;99.90;;;;;;4458304;27;658129;-69
2021/06/15 05:31:40;;;;;;;20.40;7.40;;;14.90;99.90;;;;;;4474559;27;660603;-71
2021/06/15 05:34:28;;;;;;;15.97;7.27;;;15.10;99.90;;;;;;4460790;27;658021;-69
2021/06/15 05:37:15;;;;;;;13.23;7.00;;;15.30;99.90;;;;;;4483926;27;658847;-71
2021/06/15 05:40:03;;;;;;;18.77;9.30;;;15.40;99.90;;;;;;4465981;27;657637;-70
2021/06/15 05:42:52;;;;;;;24.83;11.27;;;15.50;99.90;;;;;;4491045;27;658525;-72
2021/06/15 05:45:39;;;;;;;29.50;12.57;;;15.50;99.90;;;;;;4461775;27;659361;-71
2021/06/15 05:48:27;;;;;;;31.07;13.57;;;15.60;99.90;;;;;;4481644;27;658754;-72
2021/06/15 05:51:14;;;;;;;25.70;12.57;;;15.60;99.90;;;;;;4454894;27;659089;-72
2021/06/15 05:54:03;;;;;;;20.70;8.53;;;15.70;99.90;;;;;;4489488;27;658773;-72
2021/06/15 05:56:51;;;;;;;28.70;11.17;;;15.80;99.90;;;;;;4463178;27;657749;-72
2021/06/15 05:59:40;;;;;;;25.47;11.93;;;16.00;99.90;;;;;;4473005;27;658728;-72
2021/06/15 06:02:28;;;;;;;23.20;11.27;;;16.20;99.90;;;;;;4483653;27;658873;-70
2021/06/15 06:08:22;;;;;;;23.87;10.93;;;16.50;99.90;;;;;;4465434;27;659419;-70
2021/06/15 06:11:10;;;;;;;23.33;10.55;;;16.50;99.90;;;;;;4480873;27;658652;-70
2021/06/15 06:13:58;;;;;;;27.07;10.40;;;16.50;99.90;;;;;;4493459;27;658610;-70
2021/06/15 06:16:47;;;;;;;24.57;11.50;;;16.60;99.90;;;;;;4484996;27;660106;-70
2021/06/15 06:19:34;;;;;;;21.57;10.10;;;16.80;99.90;;;;;;4473276;27;659727;-70
2021/06/15 06:22:22;;;;;;;22.20;10.50;;;16.90;99.90;;;;;;4472741;27;659147;-70
2021/06/15 06:25:13;;;;;;;23.07;9.90;;;17.00;99.90;;;;;;4462352;27;658906;-70
2021/06/15 06:28:01;;;;;;;25.20;10.80;;;17.30;99.90;;;;;;4467002;27;657587;-70
2021/06/15 06:30:49;;;;;;;24.07;9.90;;;17.50;99.90;;;;;;4482053;27;658421;-69
2021/06/15 06:33:38;;;;;;;24.30;10.03;;;17.60;99.90;;;;;;4481196;27;657653;-70
2021/06/15 06:36:27;;;;;;;21.83;10.13;;;17.80;99.90;;;;;;4460825;27;659487;-70
2021/06/15 06:39:14;;;;;;;22.80;9.57;;;17.90;99.90;;;;;;4463186;27;659780;-71
2021/06/15 06:42:02;;;;;;;21.93;9.97;;;18.00;99.90;;;;;;4492087;27;657396;-71
2021/06/15 06:44:49;;;;;;;20.27;8.63;;;18.10;99.90;;;;;;4453384;27;658571;-70
2021/06/15 06:47:37;;;;;;;15.97;8.37;;;18.30;99.90;;;;;;4483098;27;657719;-70
2021/06/15 06:50:26;;;;;;;19.43;8.47;;;18.40;99.90;;;;;;4445380;28;658776;-71
2021/06/15 06:53:14;;;;;;;13.90;7.40;;;18.60;99.90;;;;;;4474209;27;657618;-71
2021/06/15 06:56:01;;;;;;;14.17;6.73;;;18.90;99.90;;;;;;4486518;27;657427;-71
2021/06/15 06:58:49;;;;;;;15.93;6.23;;;19.00;99.90;;;;;;4479228;27;658221;-71
2021/06/15 07:01:36;;;;;;;18.17;6.00;;;19.10;99.90;;;;;;4497640;27;658462;-70
2021/06/15 07:04:24;;;;;;;9.60;5.00;;;19.40;99.90;;;;;;4468843;27;657460;-71
2021/06/15 07:07:12;;;;;;;15.57;4.90;;;19.50;99.90;;;;;;4504380;27;656556;-71
2021/06/15 07:10:00;;;;;;;12.40;4.80;;;19.70;99.90;;;;;;4481712;27;658337;-71
2021/06/15 07:12:48;;;;;;;7.10;4.40;;;19.90;99.90;;;;;;4484956;27;657409;-69
2021/06/15 07:15:35;;;;;;;10.83;4.97;;;20.10;99.90;;;;;;4489256;27;658099;-71
2021/06/15 07:18:23;;;;;;;10.93;4.20;;;20.30;99.90;;;;;;4473623;27;657820;-70
2021/06/15 07:21:10;;;;;;;10.80;4.67;;;20.40;99.90;;;;;;4492953;27;658493;-71
2021/06/15 07:23:59;;;;;;;14.50;4.47;;;20.60;99.90;;;;;;4469032;27;658057;-70
2021/06/15 07:26:47;;;;;;;9.07;4.27;;;20.60;99.90;;;;;;4498742;27;658344;-72
2021/06/15 07:29:35;;;;;;;9.60;4.23;;;20.70;99.90;;;;;;4476997;27;657858;-72
2021/06/15 07:32:22;;;;;;;7.17;3.63;;;20.60;99.90;;;;;;4489478;27;656310;-70
2021/06/15 07:35:11;;;;;;;7.67;3.60;;;20.60;99.90;;;;;;4474509;27;657996;-70
2021/06/15 07:37:59;;;;;;;6.63;3.80;;;20.70;99.90;;;;;;4463891;27;656733;-69
2021/06/15 07:40:48;;;;;;;5.10;2.70;;;20.80;99.90;;;;;;4497900;27;657016;-70
2021/06/15 07:43:37;;;;;;;7.50;2.60;;;21.00;99.90;;;;;;4468183;27;657790;-71
2021/06/15 07:46:25;;;;;;;4.40;2.37;;;21.10;99.90;;;;;;4486697;27;657694;-70
2021/06/15 07:49:13;;;;;;;6.73;2.60;;;21.30;99.90;;;;;;4497042;27;656316;-69
2021/06/15 07:52:00;;;;;;;7.00;2.30;;;21.60;99.90;;;;;;4505394;27;656885;-71
2021/06/15 07:54:48;;;;;;;5.83;3.30;;;21.60;99.90;;;;;;4484353;27;656568;-71
2021/06/15 07:57:37;;;;;;;3.03;2.10;;;21.90;99.90;;;;;;4497591;27;657075;-71
2021/06/15 08:00:25;;;;;;;8.27;1.90;;;22.30;99.90;;;;;;4472351;27;657577;-71
2021/06/15 08:03:13;;;;;;;4.73;1.90;;;22.40;99.20;;;;;;4470866;27;656617;-70
2021/06/15 08:06:00;;;;;;;2.70;1.83;;;22.60;97.40;;;;;;4489060;27;657407;-71
2021/06/15 08:08:48;;;;;;;3.03;1.83;;;22.50;92.10;;;;;;4476836;27;656521;-69
2021/06/15 08:11:35;;;;;;;5.40;2.20;;;22.60;93.70;;;;;;4477206;27;657762;-72
2021/06/15 08:14:24;;;;;;;4.43;2.00;;;22.50;93.40;;;;;;4475729;27;656717;-71
2021/06/15 08:17:12;;;;;;;7.43;2.80;;;22.60;92.20;;;;;;4477944;27;656781;-72
2021/06/15 08:19:59;;;;;;;6.90;2.50;;;22.40;89.90;;;;;;4481601;27;657928;-72
2021/06/15 08:22:47;;;;;;;9.63;3.10;;;22.40;91.60;;;;;;4489690;27;656852;-73
2021/06/15 08:25:35;;;;;;;6.43;2.90;;;22.50;96.40;;;;;;4465850;27;657497;-72
2021/06/15 08:28:22;;;;;;;10.77;3.07;;;22.50;91.70;;;;;;4482162;27;656467;-71
2021/06/15 08:31:11;;;;;;;6.43;3.00;;;22.40;91.30;;;;;;4460002;27;658927;-74
2021/06/15 08:33:59;;;;;;;6.93;3.03;;;22.40;92.80;;;;;;4472095;27;656768;-73
2021/06/15 08:36:47;;;;;;;7.73;3.20;;;22.40;92.40;;;;;;4504340;27;656331;-72
2021/06/15 08:39:34;;;;;;;5.83;3.03;;;22.30;91.20;;;;;;4468968;27;657817;-72
2021/06/15 08:42:21;;;;;;;6.00;3.13;;;22.50;94.60;;;;;;4504138;27;656929;-72
2021/06/15 08:45:11;;;;;;;6.30;2.80;;;22.70;92.70;;;;;;4471046;27;656944;-72
2021/06/15 08:47:59;;;;;;;7.50;3.03;;;22.90;91.00;;;;;;4472432;27;657022;-71
2021/06/15 08:50:47;;;;;;;4.93;2.60;;;23.00;93.70;;;;;;4488643;27;656459;-72
2021/06/15 08:53:35;;;;;;;6.30;2.50;;;23.10;93.70;;;;;;4465162;27;657708;-72
2021/06/15 08:56:28;;;;;;;6.40;2.60;;;23.30;88.80;;;;;;4484005;27;656467;-71
2021/06/15 08:59:20;;;;;;;6.23;2.83;;;23.20;87.60;;;;;;4461371;27;657228;-72
2021/06/15 09:02:07;;;;;;;8.03;3.10;;;23.40;88.50;;;;;;4480458;27;656608;-72
2021/06/15 09:04:56;;;;;;;6.80;2.63;;;23.70;85.70;;;;;;4483653;27;657466;-72
2021/06/15 09:08:04;;;;;;;7.90;2.90;;;23.70;82.10;;;;;;4479770;27;657363;-71
2021/06/15 09:10:51;;;;;;;4.10;2.77;;;23.80;78.60;;;;;;4457845;27;657316;-71
2021/06/15 09:13:39;;;;;;;12.20;3.10;;;23.90;79.50;;;;;;4472935;27;656511;-71
2021/06/15 09:16:28;;;;;;;8.03;3.40;;;23.80;80.70;;;;;;4489547;27;657370;-71
2021/06/15 09:19:17;;;;;;;5.13;2.80;;;24.30;83.40;;;;;;4447774;27;657491;-71
2021/06/15 09:22:06;;;;;;;7.30;2.97;;;24.90;85.30;;;;;;4470287;27;657034;-72
2021/06/15 09:24:54;;;;;;;5.87;2.67;;;24.60;75.70;;;;;;4482523;27;656786;-72
2021/06/15 09:27:42;;;;;;;3.33;2.50;;;24.30;80.00;;;;;;4505113;27;657418;-72
2021/06/15 09:30:30;;;;;;;4.53;2.77;;;24.50;72.50;;;;;;4482319;27;658164;-72
2021/06/15 09:33:18;;;;;;;5.43;2.30;;;24.70;79.50;;;;;;4487799;27;656627;-70
2021/06/15 09:36:07;;;;;;;6.50;2.60;;;25.00;80.00;;;;;;4497480;27;658098;-72
2021/06/15 09:38:56;;;;;;;10.43;3.35;;;25.00;75.90;;;;;;4470144;27;657409;-71
2021/06/15 09:41:44;;;;;;;6.53;3.28;;;25.10;77.00;;;;;;4484557;27;657588;-72
2021/06/15 09:44:32;;;;;;;5.28;2.90;;;24.80;74.00;;;;;;4504686;27;656771;-73
2021/06/15 09:47:22;;;;;;;4.13;2.67;;;24.90;74.40;;;;;;4454550;27;657886;-73
2021/06/15 09:50:10;;;;;;;6.77;2.80;;;25.00;70.40;;;;;;4480549;27;657031;-73
2021/06/15 09:52:58;;;;;;;4.90;2.95;;;24.90;75.00;;;;;;4468201;27;656248;-72
2021/06/15 09:55:49;;;;;;;6.85;2.92;;;24.90;76.20;;;;;;4493386;27;658091;-73
2021/06/15 09:58:44;;;;;;;7.00;3.38;;;24.90;75.00;;;;;;4460294;27;656389;-73
2021/06/15 10:01:33;;;;;;;7.57;2.93;;;24.90;69.40;;;;;;4465423;27;656678;-73
2021/06/15 10:04:22;;;;;;;7.85;3.03;;;24.90;72.00;;;;;;4468637;27;657851;-73
2021/06/15 10:07:10;;;;;;;6.30;2.80;;;25.30;72.40;;;;;;4478939;27;657782;-73
2021/06/15 10:09:58;;;;;;;3.78;2.70;;;25.60;74.90;;;;;;4487122;27;656175;-70
2021/06/15 10:12:47;;;;;;;6.18;2.63;;;25.60;70.20;;;;;;4506680;27;656403;-72
2021/06/15 10:15:35;;;;;;;5.57;2.90;;;26.00;70.90;;;;;;4462576;27;657559;-72
2021/06/15 10:18:23;;;;;;;7.72;2.75;;;26.10;69.20;;;;;;4491762;27;657150;-70
2021/06/15 10:21:10;;;;;;;6.38;2.70;;;26.40;70.40;;;;;;4489051;27;657605;-71
2021/06/15 10:23:58;;;;;;;6.28;2.90;;;26.50;70.00;;;;;;4484687;27;656850;-71
2021/06/15 10:26:45;;;;;;;6.38;2.72;;;26.40;65.60;;;;;;4470577;27;656877;-71
2021/06/15 10:29:34;;;;;;;31.13;9.40;;;26.60;64.20;;;;;;4466137;28;657229;-72
2021/06/15 10:32:23;;;;;;;6.25;3.03;;;26.80;60.90;;;;;;4489180;27;658345;-71
2021/06/15 10:35:13;;;;;;;7.13;3.17;;;26.40;60.60;;;;;;4464695;27;657666;-72
2021/06/15 10:38:01;;;;;;;6.25;3.05;;;26.60;65.60;;;;;;4457677;27;658640;-71
2021/06/15 10:40:53;;;;;;;6.40;3.08;;;26.80;65.90;;;;;;4478173;27;656527;-71
2021/06/15 10:43:44;;;;;;;3.72;2.50;;;26.60;65.90;;;;;;4479463;27;656688;-72
2021/06/15 10:46:42;;;;;;;4.75;2.60;;;26.40;63.70;;;;;;4466251;27;657155;-72
2021/06/15 10:49:29;;;;;;;6.57;2.67;;;26.30;65.20;;;;;;4451750;27;656680;-72
2021/06/15 10:52:17;;;;;;;5.88;3.08;;;26.10;62.90;;;;;;4500307;27;656650;-72
2021/06/15 10:55:27;;;;;;;12.98;5.40;;;26.00;61.10;;;;;;4459884;27;657603;-71
2021/06/15 10:58:14;;;;;;;6.55;2.85;;;26.00;61.30;;;;;;4439777;27;657783;-72
2021/06/15 11:01:13;;;;;;;8.70;4.30;;;26.10;60.90;;;;;;4499015;27;656584;-72
2021/06/15 11:04:03;;;;;;;6.32;2.63;;;26.50;62.80;;;;;;4453372;27;656928;-72
2021/06/15 11:06:55;;;;;;;6.45;3.15;;;26.80;64.30;;;;;;4465279;27;656374;-72
2021/06/15 11:09:44;;;;;;;12.13;3.08;;;27.00;61.60;;;;;;4453652;27;657009;-70
2021/06/15 11:12:32;;;;;;;5.18;2.85;;;27.00;56.30;;;;;;4505603;27;658007;-72
2021/06/15 11:15:22;;;;;;;3.38;2.60;;;27.10;57.10;;;;;;4483491;27;657749;-72
2021/06/15 11:18:14;;;;;;;4.93;2.88;;;27.70;57.90;;;;;;4484344;27;657069;-71
2021/06/15 11:24:10;;;;;;;6.10;3.03;;;27.80;59.80;;;;;;4985302;27;131063;-72
2021/06/15 11:26:59;;;;;;;7.25;3.38;;;27.60;58.10;;;;;;4408215;28;650203;-71
2021/06/15 11:29:47;;;;;;;9.90;3.20;;;27.50;57.80;;;;;;4456201;28;650591;-72
2021/06/15 11:32:36;;;;;;;5.75;2.70;;;27.80;58.90;;;;;;4423984;28;650485;-71
2021/06/15 11:35:23;;;;;;;7.78;2.90;;;27.70;54.50;;;;;;4427441;28;650072;-73
2021/06/15 11:38:15;;;;;;;8.73;3.30;;;27.20;57.00;;;;;;4461426;28;650823;-73
2021/06/15 11:41:04;;;;;;;5.18;2.90;;;27.00;59.00;;;;;;4426801;28;651135;-70
2021/06/15 11:43:56;;;;;;;5.50;2.88;;;27.10;58.20;;;;;;4458628;28;651550;-72
2021/06/15 11:47:06;;;;;;;6.18;3.25;;;27.20;55.50;;;;;;4405751;28;651571;-73
2021/06/15 11:50:18;;;;;;;6.70;3.03;;;27.50;58.10;;;;;;4411838;28;651636;-71
2021/06/15 11:53:06;;;;;;;10.05;3.78;;;27.40;57.80;;;;;;4406871;28;653219;-72
2021/06/15 11:55:55;;;;;;;6.78;3.25;;;27.60;58.40;;;;;;4432940;28;653132;-72
2021/06/15 11:58:47;;;;;;;6.13;3.67;;;27.80;56.20;;;;;;4447037;28;652684;-72
2021/06/15 12:01:37;;;;;;;7.05;3.20;;;27.80;58.00;;;;;;4429320;28;653492;-73
2021/06/15 12:04:25;;;;;;;4.95;3.00;;;27.50;58.90;;;;;;4441629;28;653306;-73
2021/06/15 12:07:17;;;;;;;4.47;3.17;;;27.40;57.70;;;;;;4450643;28;652779;-72
2021/06/15 12:10:07;;;;;;;6.30;3.60;;;27.30;56.20;;;;;;4432267;28;654125;-74
2021/06/15 12:13:00;;;;;;;7.47;3.15;;;27.40;58.40;;;;;;4434002;28;654155;-71
2021/06/15 12:15:53;;;;;;;5.35;3.20;;;27.40;57.30;;;;;;4428394;28;652417;-70
2021/06/15 12:18:42;;;;;;;7.22;3.10;;;27.60;55.60;;;;;;4431629;28;653103;-72
2021/06/15 12:21:30;;;;;;;5.47;3.50;;;27.90;62.30;;;;;;4433278;28;653630;-72
2021/06/15 12:24:18;;;;;;;8.97;3.10;;;28.20;56.80;;;;;;4441497;28;652352;-71
2021/06/15 12:27:07;;;;;;;8.18;2.67;;;28.40;55.50;;;;;;4468606;28;653492;-71
2021/06/15 12:30:04;;;;;;;8.88;3.15;;;28.80;56.80;;;;;;4422185;28;654221;-71
2021/06/15 12:32:53;;;;;;;6.63;3.03;;;28.90;54.10;;;;;;4435655;28;654567;-72
2021/06/15 12:35:41;;;;;;;7.85;3.03;;;29.10;56.10;;;;;;4433652;28;653283;-72
2021/06/15 12:38:28;;;;;;;6.00;3.40;;;29.00;53.90;;;;;;4429004;28;652979;-71
2021/06/15 12:41:17;;;;;;;6.90;3.47;;;28.70;53.60;;;;;;4440399;28;653299;-72
2021/06/15 12:44:05;;;;;;;8.45;3.33;;;28.60;51.90;;;;;;4419697;28;653269;-72
2021/06/15 12:46:58;;;;;;;8.07;3.50;;;28.60;57.30;;;;;;4433588;28;652708;-71
2021/06/15 12:49:51;;;;;;;7.47;3.05;;;28.70;54.10;;;;;;4409838;28;653187;-72
2021/06/15 12:52:40;;;;;;;9.65;3.28;;;28.90;56.80;;;;;;4394116;28;652398;-72
2021/06/15 12:55:28;;;;;;;9.57;4.70;;;28.90;54.90;;;;;;4443026;28;652575;-71
2021/06/15 12:58:25;;;;;;;8.68;3.40;;;28.90;52.60;;;;;;4434217;28;653777;-73
2021/06/15 13:01:15;;;;;;;6.30;3.40;;;29.20;54.10;;;;;;4411140;28;652394;-72
2021/06/15 13:04:19;;;;;;;7.18;3.55;;;29.30;52.70;;;;;;4438657;28;652741;-73
2021/06/15 13:07:12;;;;;;;12.20;5.35;;;29.50;51.90;;;;;;4432324;28;652360;-74
2021/06/15 13:10:14;;;;;;;6.53;3.33;;;29.80;52.60;;;;;;4406982;28;653656;-73
2021/06/15 13:13:04;;;;;;;10.57;3.40;;;30.20;52.00;;;;;;4420897;28;652280;-72
2021/06/15 13:15:51;;;;;;;9.60;3.55;;;29.40;49.40;;;;;;4414754;28;654269;-73
2021/06/15 13:18:38;;;;;;;8.13;3.85;;;28.70;49.70;;;;;;4428374;28;652642;-75
2021/06/15 13:22:02;;;;;;;7.85;3.40;;;28.30;51.10;;;;;;4447561;28;653350;-74
2021/06/15 13:24:51;;;;;;;7.88;3.35;;;28.00;55.40;;;;;;4435944;28;652532;-73
2021/06/15 13:27:40;;;;;;;11.73;4.03;;;27.90;53.10;;;;;;4434398;28;652574;-72
2021/06/15 13:30:29;;;;;;;40.78;12.50;;;28.00;52.70;;;;;;4431898;28;654145;-71
2021/06/15 13:33:18;;;;;;;9.15;4.10;;;28.10;53.80;;;;;;4431286;28;654598;-73
2021/06/15 13:36:06;;;;;;;5.03;3.50;;;28.00;54.30;;;;;;4417704;28;653715;-73
2021/06/15 13:38:55;;;;;;;5.55;2.92;;;28.10;53.30;;;;;;4432350;28;652454;-72
2021/06/15 13:41:44;;;;;;;7.40;3.75;;;27.90;55.70;;;;;;4431991;28;652831;-71
2021/06/15 13:44:33;;;;;;;6.57;3.55;;;27.50;52.50;;;;;;4447600;28;652091;-72
2021/06/15 13:47:20;;;;;;;9.95;3.50;;;28.00;54.10;;;;;;4431815;28;653154;-73
2021/06/15 13:50:09;;;;;;;7.40;3.50;;;28.20;53.20;;;;;;4435268;28;652017;-71
2021/06/15 13:52:57;;;;;;;6.45;2.97;;;28.20;54.60;;;;;;4439065;28;652813;-73
2021/06/15 13:55:45;;;;;;;12.38;3.30;;;28.10;51.50;;;;;;4432328;28;654067;-72
2021/06/15 13:58:35;;;;;;;6.53;3.67;;;27.90;51.00;;;;;;4422359;28;653534;-72
2021/06/15 14:01:23;;;;;;;9.02;3.63;;;28.10;51.90;;;;;;4437403;28;652384;-71
2021/06/15 14:04:10;;;;;;;5.53;3.50;;;28.40;51.60;;;;;;4443268;28;653388;-71
2021/06/15 14:06:58;;;;;;;4.10;2.88;;;28.60;52.50;;;;;;4433231;28;651945;-70
2021/06/15 14:09:45;;;;;;;6.85;2.80;;;28.60;50.70;;;;;;4438261;28;653138;-72
2021/06/15 14:12:33;;;;;;;10.02;3.28;;;28.00;50.60;;;;;;4427634;28;653328;-71
2021/06/15 14:15:23;;;;;;;9.00;3.00;;;27.80;53.00;;;;;;4444999;28;654863;-71
2021/06/15 14:18:11;;;;;;;7.57;3.58;;;28.30;53.00;;;;;;4406749;28;653537;-72
2021/06/15 14:20:58;;;;;;;6.65;3.28;;;28.40;51.70;;;;;;4424032;28;653516;-72
2021/06/15 14:23:46;;;;;;;7.65;3.28;;;28.00;51.90;;;;;;4443248;28;653862;-71
2021/06/15 14:26:33;;;;;;;8.30;3.22;;;27.80;52.60;;;;;;4435391;28;654005;-71
2021/06/15 14:29:21;;;;;;;5.25;3.20;;;28.10;53.30;;;;;;4448590;28;654992;-71
2021/06/15 14:32:10;;;;;;;6.97;3.40;;;27.70;52.20;;;;;;4424550;28;653299;-71